sensor_id;sensor_type;location;lat;lon;timestamp;pressure;altitude;pressure_sealevel;temperature;humidity
15195;BME280;7698;42.478;23.756;2023-01-08T00:01:12;93825.28;;;0.18;100.00
15195;BME280;7698;42.478;23.756;2023-01-08T00:03:39;93819.22;;;0.18;100.00
15195;BME280;7698;42.478;23.756;2023-01-08T00:06:10;93827.09;;;0.18;100.00
15195;BME280;7698;42.478;23.756;2023-01-08T00:08:37;93827.91;;;0.18;100.00
15195;BME280;7698;42.478;23.756;2023-01-08T00:11:04;93828.56;;;0.12;100.00
15195;BME280;7698;42.478;23.756;2023-01-08T00:13:31;93832.66;;;0.07;100.00
15195;BME280;7698;42.478;23.756;2023-01-08T00:16:02;93828.03;;;0.00;100.00
15195;BME280;7698;42.478;23.756;2023-01-08T00:18:31;93832.81;;;-0.03;100.00
15195;BME280;7698;42.478;23.756;2023-01-08T00:20:58;93833.81;;;-0.04;100.00
15195;BME280;7698;42.478;23.756;2023-01-08T00:23:26;93832.31;;;-0.07;100.00
15195;BME280;7698;42.478;23.756;2023-01-08T00:25:52;93833.97;;;-0.06;100.00
15195;BME280;7698;42.478;23.756;2023-01-08T00:28:19;93828.06;;;-0.08;100.00
15195;BME280;7698;42.478;23.756;2023-01-08T00:30:46;93830.50;;;-0.14;100.00
15195;BME280;7698;42.478;23.756;2023-01-08T00:33:14;93829.50;;;-0.21;100.00
15195;BME280;7698;42.478;23.756;2023-01-08T00:35:42;93820.97;;;-0.31;100.00
15195;BME280;7698;42.478;23.756;2023-01-08T00:38:09;93825.88;;;-0.37;100.00
15195;BME280;7698;42.478;23.756;2023-01-08T00:40:36;93823.88;;;-0.43;100.00
15195;BME280;7698;42.478;23.756;2023-01-08T00:43:04;93821.59;;;-0.46;100.00
15195;BME280;7698;42.478;23.756;2023-01-08T00:45:32;93812.72;;;-0.53;100.00
15195;BME280;7698;42.478;23.756;2023-01-08T00:47:59;93818.31;;;-0.56;100.00
15195;BME280;7698;42.478;23.756;2023-01-08T00:50:26;93811.41;;;-0.57;100.00
15195;BME280;7698;42.478;23.756;2023-01-08T00:52:54;93814.03;;;-0.57;100.00
15195;BME280;7698;42.478;23.756;2023-01-08T00:55:21;93816.81;;;-0.58;100.00
15195;BME280;7698;42.478;23.756;2023-01-08T00:57:47;93814.03;;;-0.57;100.00
15195;BME280;7698;42.478;23.756;2023-01-08T01:00:15;93805.19;;;-0.56;100.00
15195;BME280;7698;42.478;23.756;2023-01-08T01:02:42;93810.09;;;-0.53;100.00
15195;BME280;7698;42.478;23.756;2023-01-08T01:05:10;93821.25;;;-0.51;100.00
15195;BME280;7698;42.478;23.756;2023-01-08T01:07:39;93816.81;;;-0.50;100.00
15195;BME280;7698;42.478;23.756;2023-01-08T01:10:09;93823.22;;;-0.45;100.00
15195;BME280;7698;42.478;23.756;2023-01-08T01:12:37;93817.16;;;-0.45;100.00
15195;BME280;7698;42.478;23.756;2023-01-08T01:15:05;93815.84;;;-0.49;100.00
15195;BME280;7698;42.478;23.756;2023-01-08T01:17:32;93820.25;;;-0.50;100.00
15195;BME280;7698;42.478;23.756;2023-01-08T01:20:00;93808.78;;;-0.49;100.00
15195;BME280;7698;42.478;23.756;2023-01-08T01:22:26;93806.66;;;-0.45;100.00
15195;BME280;7698;42.478;23.756;2023-01-08T01:24:53;93809.13;;;-0.44;100.00
15195;BME280;7698;42.478;23.756;2023-01-08T01:27:21;93806.50;;;-0.44;100.00
15195;BME280;7698;42.478;23.756;2023-01-08T01:29:48;93803.88;;;-0.44;100.00
15195;BME280;7698;42.478;23.756;2023-01-08T01:32:15;93798.97;;;-0.47;100.00
15195;BME280;7698;42.478;23.756;2023-01-08T01:34:42;93806.16;;;-0.49;100.00
15195;BME280;7698;42.478;23.756;2023-01-08T01:37:10;93802.38;;;-0.54;100.00
15195;BME280;7698;42.478;23.756;2023-01-08T01:39:37;93799.44;;;-0.59;100.00
15195;BME280;7698;42.478;23.756;2023-01-08T01:42:04;93794.00;;;-0.66;100.00
15195;BME280;7698;42.478;23.756;2023-01-08T01:44:39;93792.69;;;-0.70;100.00
15195;BME280;7698;42.478;23.756;2023-01-08T01:47:11;93794.97;;;-0.75;100.00
15195;BME280;7698;42.478;23.756;2023-01-08T01:49:42;93787.25;;;-0.77;100.00
15195;BME280;7698;42.478;23.756;2023-01-08T01:52:14;93787.56;;;-0.80;100.00
15195;BME280;7698;42.478;23.756;2023-01-08T01:54:40;93791.97;;;-0.80;100.00
15195;BME280;7698;42.478;23.756;2023-01-08T01:57:08;93790.34;;;-0.81;100.00
15195;BME280;7698;42.478;23.756;2023-01-08T01:59:37;93787.91;;;-0.83;100.00
15195;BME280;7698;42.478;23.756;2023-01-08T02:02:03;93788.22;;;-0.86;100.00
15195;BME280;7698;42.478;23.756;2023-01-08T02:04:30;93779.19;;;-0.91;100.00
15195;BME280;7698;42.478;23.756;2023-01-08T02:07:03;93782.78;;;-0.92;100.00
15195;BME280;7698;42.478;23.756;2023-01-08T02:09:41;93774.63;;;-0.89;100.00
15195;BME280;7698;42.478;23.756;2023-01-08T02:12:11;93772.19;;;-0.83;100.00
15195;BME280;7698;42.478;23.756;2023-01-08T02:14:58;93771.38;;;-0.83;100.00
15195;BME280;7698;42.478;23.756;2023-01-08T02:17:33;93769.72;;;-0.84;100.00
15195;BME280;7698;42.478;23.756;2023-01-08T02:20:09;93766.44;;;-0.86;100.00
15195;BME280;7698;42.478;23.756;2023-01-08T02:22:45;93767.56;;;-0.89;100.00
15195;BME280;7698;42.478;23.756;2023-01-08T02:25:19;93770.66;;;-0.93;100.00
15195;BME280;7698;42.478;23.756;2023-01-08T02:27:52;93773.59;;;-0.96;100.00
15195;BME280;7698;42.478;23.756;2023-01-08T02:30:20;93772.28;;;-1.00;100.00
15195;BME280;7698;42.478;23.756;2023-01-08T02:32:47;93773.88;;;-1.08;100.00
15195;BME280;7698;42.478;23.756;2023-01-08T02:35:14;93771.75;;;-1.12;100.00
15195;BME280;7698;42.478;23.756;2023-01-08T02:37:41;93762.09;;;-1.12;100.00
15195;BME280;7698;42.478;23.756;2023-01-08T02:40:20;93762.75;;;-1.10;100.00
15195;BME280;7698;42.478;23.756;2023-01-08T02:42:55;93764.22;;;-1.07;100.00
15195;BME280;7698;42.478;23.756;2023-01-08T02:45:30;93764.06;;;-1.06;100.00
15195;BME280;7698;42.478;23.756;2023-01-08T02:48:06;93755.88;;;-1.11;100.00
15195;BME280;7698;42.478;23.756;2023-01-08T02:50:38;93757.50;;;-1.10;100.00
15195;BME280;7698;42.478;23.756;2023-01-08T02:53:10;93756.03;;;-1.12;100.00
15195;BME280;7698;42.478;23.756;2023-01-08T02:55:41;93758.44;;;-1.19;100.00
15195;BME280;7698;42.478;23.756;2023-01-08T02:58:12;93751.22;;;-1.25;100.00
15195;BME280;7698;42.478;23.756;2023-01-08T03:00:41;93753.31;;;-1.28;100.00
15195;BME280;7698;42.478;23.756;2023-01-08T03:03:11;93757.91;;;-1.30;100.00
15195;BME280;7698;42.478;23.756;2023-01-08T03:05:45;93759.69;;;-1.31;100.00
15195;BME280;7698;42.478;23.756;2023-01-08T03:08:13;93754.09;;;-1.36;100.00
15195;BME280;7698;42.478;23.756;2023-01-08T03:10:41;93745.41;;;-1.45;100.00
15195;BME280;7698;42.478;23.756;2023-01-08T03:13:14;93758.16;;;-1.50;100.00
15195;BME280;7698;42.478;23.756;2023-01-08T03:15:45;93754.69;;;-1.50;100.00
15195;BME280;7698;42.478;23.756;2023-01-08T03:18:17;93750.13;;;-1.48;100.00
15195;BME280;7698;42.478;23.756;2023-01-08T03:20:46;93755.06;;;-1.45;100.00
15195;BME280;7698;42.478;23.756;2023-01-08T03:23:15;93764.56;;;-1.44;100.00
15195;BME280;7698;42.478;23.756;2023-01-08T03:25:46;93757.53;;;-1.44;100.00
15195;BME280;7698;42.478;23.756;2023-01-08T03:28:17;93751.78;;;-1.47;100.00
15195;BME280;7698;42.478;23.756;2023-01-08T03:30:46;93760.75;;;-1.50;100.00
15195;BME280;7698;42.478;23.756;2023-01-08T03:33:15;93752.09;;;-1.50;100.00
15195;BME280;7698;42.478;23.756;2023-01-08T03:35:47;93749.63;;;-1.52;100.00
15195;BME280;7698;42.478;23.756;2023-01-08T03:38:19;93749.78;;;-1.53;100.00
15195;BME280;7698;42.478;23.756;2023-01-08T03:40:48;93759.28;;;-1.52;100.00
15195;BME280;7698;42.478;23.756;2023-01-08T03:43:19;93756.97;;;-1.55;100.00
15195;BME280;7698;42.478;23.756;2023-01-08T03:45:50;93748.75;;;-1.60;100.00
15195;BME280;7698;42.478;23.756;2023-01-08T03:48:19;93752.69;;;-1.64;100.00
15195;BME280;7698;42.478;23.756;2023-01-08T03:50:47;93750.38;;;-1.67;100.00
15195;BME280;7698;42.478;23.756;2023-01-08T03:53:14;93756.88;;;-1.72;100.00
15195;BME280;7698;42.478;23.756;2023-01-08T03:55:40;93747.38;;;-1.73;100.00
15195;BME280;7698;42.478;23.756;2023-01-08T03:58:07;93754.56;;;-1.75;100.00
15195;BME280;7698;42.478;23.756;2023-01-08T04:00:35;93750.69;;;-1.71;100.00
15195;BME280;7698;42.478;23.756;2023-01-08T04:03:02;93753.44;;;-1.72;100.00
15195;BME280;7698;42.478;23.756;2023-01-08T04:05:29;93748.50;;;-1.75;100.00
15195;BME280;7698;42.478;23.756;2023-01-08T04:07:56;93760.63;;;-1.74;100.00
15195;BME280;7698;42.478;23.756;2023-01-08T04:10:24;93760.47;;;-1.73;100.00
15195;BME280;7698;42.478;23.756;2023-01-08T04:12:51;93753.28;;;-1.71;100.00
15195;BME280;7698;42.478;23.756;2023-01-08T04:15:18;93756.56;;;-1.68;100.00
15195;BME280;7698;42.478;23.756;2023-01-08T04:17:47;93758.22;;;-1.67;100.00
15195;BME280;7698;42.478;23.756;2023-01-08T04:20:14;93764.44;;;-1.68;100.00
15195;BME280;7698;42.478;23.756;2023-01-08T04:22:40;93760.13;;;-1.78;100.00
15195;BME280;7698;42.478;23.756;2023-01-08T04:25:08;93763.19;;;-1.82;100.00
15195;BME280;7698;42.478;23.756;2023-01-08T04:27:34;93755.13;;;-1.89;100.00
15195;BME280;7698;42.478;23.756;2023-01-08T04:30:01;93747.09;;;-1.95;100.00
15195;BME280;7698;42.478;23.756;2023-01-08T04:32:28;93761.91;;;-2.04;100.00
15195;BME280;7698;42.478;23.756;2023-01-08T04:34:56;93759.06;;;-2.11;100.00
15195;BME280;7698;42.478;23.756;2023-01-08T04:37:24;93758.84;;;-2.17;100.00
15195;BME280;7698;42.478;23.756;2023-01-08T04:39:50;93754.75;;;-2.20;100.00
15195;BME280;7698;42.478;23.756;2023-01-08T04:42:17;93756.06;;;-2.16;100.00
15195;BME280;7698;42.478;23.756;2023-01-08T04:44:44;93754.94;;;-2.13;100.00
15195;BME280;7698;42.478;23.756;2023-01-08T04:47:11;93759.72;;;-2.09;100.00
15195;BME280;7698;42.478;23.756;2023-01-08T04:49:37;93759.22;;;-2.12;100.00
15195;BME280;7698;42.478;23.756;2023-01-08T04:52:05;93766.97;;;-2.02;100.00
15195;BME280;7698;42.478;23.756;2023-01-08T04:54:32;93766.53;;;-1.98;100.00
15195;BME280;7698;42.478;23.756;2023-01-08T04:56:59;93765.19;;;-2.02;100.00
15195;BME280;7698;42.478;23.756;2023-01-08T04:59:26;93765.34;;;-2.03;100.00
15195;BME280;7698;42.478;23.756;2023-01-08T05:01:52;93767.28;;;-2.06;100.00
15195;BME280;7698;42.478;23.756;2023-01-08T05:04:21;93775.28;;;-2.07;100.00
15195;BME280;7698;42.478;23.756;2023-01-08T05:06:47;93776.69;;;-2.13;100.00
15195;BME280;7698;42.478;23.756;2023-01-08T05:09:15;93770.94;;;-2.16;100.00
15195;BME280;7698;42.478;23.756;2023-01-08T05:11:42;93771.78;;;-2.16;100.00
15195;BME280;7698;42.478;23.756;2023-01-08T05:14:09;93768.34;;;-2.16;100.00
15195;BME280;7698;42.478;23.756;2023-01-08T05:16:36;93768.19;;;-2.15;100.00
15195;BME280;7698;42.478;23.756;2023-01-08T05:19:03;93770.66;;;-2.13;100.00
15195;BME280;7698;42.478;23.756;2023-01-08T05:21:30;93767.88;;;-2.12;100.00
15195;BME280;7698;42.478;23.756;2023-01-08T05:23:57;93765.94;;;-2.10;100.00
15195;BME280;7698;42.478;23.756;2023-01-08T05:26:25;93765.94;;;-2.10;100.00
15195;BME280;7698;42.478;23.756;2023-01-08T05:28:52;93770.34;;;-2.10;100.00
15195;BME280;7698;42.478;23.756;2023-01-08T05:31:19;93768.03;;;-2.13;100.00
15195;BME280;7698;42.478;23.756;2023-01-08T05:33:46;93765.72;;;-2.16;100.00
15195;BME280;7698;42.478;23.756;2023-01-08T05:36:13;93766.03;;;-2.19;100.00
15195;BME280;7698;42.478;23.756;2023-01-08T05:38:39;93774.34;;;-2.24;100.00
15195;BME280;7698;42.478;23.756;2023-01-08T05:41:07;93770.22;;;-2.26;100.00
15195;BME280;7698;42.478;23.756;2023-01-08T05:43:35;93770.53;;;-2.29;100.00
15195;BME280;7698;42.478;23.756;2023-01-08T05:46:03;93766.41;;;-2.32;100.00
15195;BME280;7698;42.478;23.756;2023-01-08T05:48:32;93769.19;;;-2.33;100.00
15195;BME280;7698;42.478;23.756;2023-01-08T05:51:00;93773.59;;;-2.34;100.00
15195;BME280;7698;42.478;23.756;2023-01-08T05:53:27;93773.28;;;-2.31;100.00
15195;BME280;7698;42.478;23.756;2023-01-08T05:56:00;93771.34;;;-2.29;100.00
15195;BME280;7698;42.478;23.756;2023-01-08T05:58:27;93773.22;;;-2.21;100.00
15195;BME280;7698;42.478;23.756;2023-01-08T06:01:00;93776.56;;;-2.11;100.00
15195;BME280;7698;42.478;23.756;2023-01-08T06:03:27;93785.06;;;-2.09;100.00
15195;BME280;7698;42.478;23.756;2023-01-08T06:05:57;93779.16;;;-2.11;100.00
15195;BME280;7698;42.478;23.756;2023-01-08T06:08:24;93775.56;;;-2.10;100.00
15195;BME280;7698;42.478;23.756;2023-01-08T06:10:50;93779.59;;;-1.98;100.00
15195;BME280;7698;42.478;23.756;2023-01-08T06:13:17;93784.03;;;-1.73;100.00
15195;BME280;7698;42.478;23.756;2023-01-08T06:15:44;93781.00;;;-1.26;100.00
15195;BME280;7698;42.478;23.756;2023-01-08T06:18:12;93785.19;;;-0.49;100.00
15195;BME280;7698;42.478;23.756;2023-01-08T06:20:39;93788.81;;;0.40;100.00
15195;BME280;7698;42.478;23.756;2023-01-08T06:23:06;93789.81;;;1.41;100.00
15195;BME280;7698;42.478;23.756;2023-01-08T06:25:34;93787.34;;;2.39;100.00
15195;BME280;7698;42.478;23.756;2023-01-08T06:28:01;93788.47;;;3.48;100.00
15195;BME280;7698;42.478;23.756;2023-01-08T06:30:27;93789.59;;;4.60;100.00
15195;BME280;7698;42.478;23.756;2023-01-08T06:32:55;93790.59;;;5.56;100.00
15195;BME280;7698;42.478;23.756;2023-01-08T06:35:23;93799.63;;;6.35;96.48
15195;BME280;7698;42.478;23.756;2023-01-08T06:37:51;93805.19;;;7.06;84.50
15195;BME280;7698;42.478;23.756;2023-01-08T06:40:17;93803.84;;;7.62;73.49
15195;BME280;7698;42.478;23.756;2023-01-08T06:42:44;93801.63;;;8.10;67.39
15195;BME280;7698;42.478;23.756;2023-01-08T06:45:11;93800.06;;;8.72;68.55
15195;BME280;7698;42.478;23.756;2023-01-08T06:47:38;93800.81;;;9.29;59.37
15195;BME280;7698;42.478;23.756;2023-01-08T06:50:06;93809.59;;;9.54;56.71
15195;BME280;7698;42.478;23.756;2023-01-08T06:52:34;93816.38;;;9.87;54.57
15195;BME280;7698;42.478;23.756;2023-01-08T06:55:01;93819.00;;;10.30;51.75
15195;BME280;7698;42.478;23.756;2023-01-08T06:57:29;93824.28;;;10.78;51.24
15195;BME280;7698;42.478;23.756;2023-01-08T06:59:56;93824.28;;;11.19;49.10
15195;BME280;7698;42.478;23.756;2023-01-08T07:02:22;93825.66;;;11.57;48.18
15195;BME280;7698;42.478;23.756;2023-01-08T07:04:49;93832.31;;;11.90;47.03
15195;BME280;7698;42.478;23.756;2023-01-08T07:07:16;93828.94;;;12.46;47.14
15195;BME280;7698;42.478;23.756;2023-01-08T07:09:45;93834.16;;;13.09;46.13
15195;BME280;7698;42.478;23.756;2023-01-08T07:12:12;93844.09;;;13.42;43.91
15195;BME280;7698;42.478;23.756;2023-01-08T07:14:39;93838.16;;;13.57;43.01
15195;BME280;7698;42.478;23.756;2023-01-08T07:17:06;93843.69;;;13.50;42.35
15195;BME280;7698;42.478;23.756;2023-01-08T07:19:33;93843.22;;;13.37;41.38
15195;BME280;7698;42.478;23.756;2023-01-08T07:22:00;93847.50;;;13.21;41.81
15195;BME280;7698;42.478;23.756;2023-01-08T07:24:27;93846.31;;;13.00;41.39
15195;BME280;7698;42.478;23.756;2023-01-08T07:26:56;93850.63;;;12.73;41.71
15195;BME280;7698;42.478;23.756;2023-01-08T07:29:23;93847.25;;;12.66;42.61
15195;BME280;7698;42.478;23.756;2023-01-08T07:31:50;93851.34;;;12.68;41.56
15195;BME280;7698;42.478;23.756;2023-01-08T07:34:17;93848.59;;;12.51;41.43
15195;BME280;7698;42.478;23.756;2023-01-08T07:36:45;93850.41;;;12.63;42.50
15195;BME280;7698;42.478;23.756;2023-01-08T07:39:12;93855.13;;;12.84;41.51
15195;BME280;7698;42.478;23.756;2023-01-08T07:41:39;93852.03;;;12.64;40.98
15195;BME280;7698;42.478;23.756;2023-01-08T07:44:08;93858.69;;;12.21;41.37
15195;BME280;7698;42.478;23.756;2023-01-08T07:46:35;93859.19;;;11.71;42.28
15195;BME280;7698;42.478;23.756;2023-01-08T07:49:02;93859.41;;;10.93;42.38
15195;BME280;7698;42.478;23.756;2023-01-08T07:51:30;93848.50;;;10.35;44.38
15195;BME280;7698;42.478;23.756;2023-01-08T07:53:57;93847.50;;;9.74;45.24
15195;BME280;7698;42.478;23.756;2023-01-08T07:56:24;93849.84;;;9.46;47.33
15195;BME280;7698;42.478;23.756;2023-01-08T07:58:51;93852.72;;;9.20;47.59
15195;BME280;7698;42.478;23.756;2023-01-08T08:01:20;93850.28;;;8.93;48.79
15195;BME280;7698;42.478;23.756;2023-01-08T08:03:46;93838.50;;;8.44;50.25
15195;BME280;7698;42.478;23.756;2023-01-08T08:06:13;93839.88;;;8.09;51.17
15195;BME280;7698;42.478;23.756;2023-01-08T08:08:40;93840.94;;;7.95;52.08
15195;BME280;7698;42.478;23.756;2023-01-08T08:11:07;93842.53;;;8.09;53.82
15195;BME280;7698;42.478;23.756;2023-01-08T08:13:34;93841.41;;;8.30;53.63
15195;BME280;7698;42.478;23.756;2023-01-08T08:16:01;93846.34;;;8.33;53.09
15195;BME280;7698;42.478;23.756;2023-01-08T08:18:30;93844.88;;;8.30;53.37
15195;BME280;7698;42.478;23.756;2023-01-08T08:20:57;93845.53;;;8.32;54.33
15195;BME280;7698;42.478;23.756;2023-01-08T08:23:24;93843.78;;;8.51;55.61
15195;BME280;7698;42.478;23.756;2023-01-08T08:25:52;93845.09;;;8.73;54.48
15195;BME280;7698;42.478;23.756;2023-01-08T08:28:19;93852.47;;;8.71;54.55
15195;BME280;7698;42.478;23.756;2023-01-08T08:30:46;93851.91;;;8.63;55.27
15195;BME280;7698;42.478;23.756;2023-01-08T08:33:13;93846.94;;;8.73;56.12
15195;BME280;7698;42.478;23.756;2023-01-08T08:35:47;93851.69;;;8.64;55.04
15195;BME280;7698;42.478;23.756;2023-01-08T08:38:15;93844.44;;;8.46;55.62
15195;BME280;7698;42.478;23.756;2023-01-08T08:40:42;93847.75;;;8.35;55.94
15195;BME280;7698;42.478;23.756;2023-01-08T08:43:09;93847.84;;;8.54;57.64
15195;BME280;7698;42.478;23.756;2023-01-08T08:45:36;93844.00;;;8.81;59.33
15195;BME280;7698;42.478;23.756;2023-01-08T08:48:05;93854.75;;;9.24;56.98
15195;BME280;7698;42.478;23.756;2023-01-08T08:50:34;93843.50;;;9.65;57.49
15195;BME280;7698;42.478;23.756;2023-01-08T08:53:04;93846.03;;;9.78;54.52
15195;BME280;7698;42.478;23.756;2023-01-08T08:55:32;93848.56;;;10.28;55.96
15195;BME280;7698;42.478;23.756;2023-01-08T08:58:04;93849.88;;;10.56;52.07
15195;BME280;7698;42.478;23.756;2023-01-08T09:00:32;93852.81;;;10.66;53.07
15195;BME280;7698;42.478;23.756;2023-01-08T09:02:59;93845.06;;;10.76;51.68
15195;BME280;7698;42.478;23.756;2023-01-08T09:05:26;93849.50;;;10.82;52.81
15195;BME280;7698;42.478;23.756;2023-01-08T09:07:55;93845.88;;;11.18;51.88
15195;BME280;7698;42.478;23.756;2023-01-08T09:10:23;93848.94;;;11.45;49.95
15195;BME280;7698;42.478;23.756;2023-01-08T09:12:52;93844.38;;;11.34;50.16
15195;BME280;7698;42.478;23.756;2023-01-08T09:15:19;93845.69;;;11.43;51.52
15195;BME280;7698;42.478;23.756;2023-01-08T09:17:51;93845.44;;;11.33;48.99
15195;BME280;7698;42.478;23.756;2023-01-08T09:20:19;93838.69;;;11.30;50.59
15195;BME280;7698;42.478;23.756;2023-01-08T09:22:46;93839.16;;;11.39;50.53
15195;BME280;7698;42.478;23.756;2023-01-08T09:25:13;93840.09;;;11.56;50.91
15195;BME280;7698;42.478;23.756;2023-01-08T09:27:42;93834.97;;;11.43;49.34
15195;BME280;7698;42.478;23.756;2023-01-08T09:30:10;93835.09;;;11.48;49.95
15195;BME280;7698;42.478;23.756;2023-01-08T09:32:37;93830.44;;;11.55;50.19
15195;BME280;7698;42.478;23.756;2023-01-08T09:35:04;93831.03;;;11.57;50.23
15195;BME280;7698;42.478;23.756;2023-01-08T09:37:31;93823.47;;;11.89;51.56
15195;BME280;7698;42.478;23.756;2023-01-08T09:39:58;93814.56;;;12.24;49.00
15195;BME280;7698;42.478;23.756;2023-01-08T09:42:26;93822.78;;;12.45;49.25
15195;BME280;7698;42.478;23.756;2023-01-08T09:44:56;93820.06;;;12.57;47.25
15195;BME280;7698;42.478;23.756;2023-01-08T09:47:26;93813.44;;;12.48;49.14
15195;BME280;7698;42.478;23.756;2023-01-08T09:49:59;93814.13;;;12.83;48.50
15195;BME280;7698;42.478;23.756;2023-01-08T09:52:27;93810.22;;;12.91;47.07
15195;BME280;7698;42.478;23.756;2023-01-08T09:54:55;93806.31;;;12.82;48.15
15195;BME280;7698;42.478;23.756;2023-01-08T09:57:22;93805.34;;;12.88;46.96
15195;BME280;7698;42.478;23.756;2023-01-08T09:59:49;93799.66;;;12.84;46.46
15195;BME280;7698;42.478;23.756;2023-01-08T10:02:20;93794.81;;;12.98;47.35
15195;BME280;7698;42.478;23.756;2023-01-08T10:04:52;93791.06;;;12.99;47.18
15195;BME280;7698;42.478;23.756;2023-01-08T10:07:20;93793.19;;;13.14;48.36
15195;BME280;7698;42.478;23.756;2023-01-08T10:09:49;93783.16;;;13.38;46.68
15195;BME280;7698;42.478;23.756;2023-01-08T10:12:23;93782.22;;;13.49;46.34
15195;BME280;7698;42.478;23.756;2023-01-08T10:14:53;93783.44;;;13.41;45.63
15195;BME280;7698;42.478;23.756;2023-01-08T10:17:26;93776.31;;;13.47;47.02
15195;BME280;7698;42.478;23.756;2023-01-08T10:19:53;93768.88;;;13.71;45.99
15195;BME280;7698;42.478;23.756;2023-01-08T10:22:22;93768.53;;;13.84;46.03
15195;BME280;7698;42.478;23.756;2023-01-08T10:24:51;93770.16;;;14.07;46.11
15195;BME280;7698;42.478;23.756;2023-01-08T10:27:20;93770.97;;;14.51;45.82
15195;BME280;7698;42.478;23.756;2023-01-08T10:29:49;93769.22;;;14.62;45.18
15195;BME280;7698;42.478;23.756;2023-01-08T10:32:18;93769.06;;;14.73;43.59
15195;BME280;7698;42.478;23.756;2023-01-08T10:34:49;93766.63;;;14.72;44.26
15195;BME280;7698;42.478;23.756;2023-01-08T10:37:23;93756.28;;;14.85;45.24
15195;BME280;7698;42.478;23.756;2023-01-08T10:39:53;93753.69;;;15.28;44.16
15195;BME280;7698;42.478;23.756;2023-01-08T10:42:22;93752.13;;;15.32;42.92
15195;BME280;7698;42.478;23.756;2023-01-08T10:44:57;93751.91;;;15.43;42.03
15195;BME280;7698;42.478;23.756;2023-01-08T10:47:27;93738.59;;;15.21;42.54
15195;BME280;7698;42.478;23.756;2023-01-08T10:49:57;93736.78;;;15.00;43.07
15195;BME280;7698;42.478;23.756;2023-01-08T10:52:29;93742.13;;;14.95;43.01
15195;BME280;7698;42.478;23.756;2023-01-08T10:55:10;93735.53;;;15.13;42.96
15195;BME280;7698;42.478;23.756;2023-01-08T10:57:39;93733.31;;;14.73;42.38
15195;BME280;7698;42.478;23.756;2023-01-08T11:00:22;93726.63;;;14.48;43.40
15195;BME280;7698;42.478;23.756;2023-01-08T11:02:49;93723.94;;;14.48;44.14
15195;BME280;7698;42.478;23.756;2023-01-08T11:05:17;93718.22;;;14.67;43.85
15195;BME280;7698;42.478;23.756;2023-01-08T11:07:48;93711.25;;;14.71;42.59
15195;BME280;7698;42.478;23.756;2023-01-08T11:10:22;93707.50;;;14.72;43.27
15195;BME280;7698;42.478;23.756;2023-01-08T11:12:54;93709.03;;;14.63;42.20
15195;BME280;7698;42.478;23.756;2023-01-08T11:15:33;93702.94;;;14.23;43.13
15195;BME280;7698;42.478;23.756;2023-01-08T11:18:11;93703.81;;;14.29;44.34
15195;BME280;7698;42.478;23.756;2023-01-08T11:20:41;93705.38;;;14.25;42.49
15195;BME280;7698;42.478;23.756;2023-01-08T11:23:15;93700.81;;;14.47;43.55
15195;BME280;7698;42.478;23.756;2023-01-08T11:25:45;93696.00;;;14.49;43.80
15195;BME280;7698;42.478;23.756;2023-01-08T11:28:18;93698.34;;;14.19;43.90
15195;BME280;7698;42.478;23.756;2023-01-08T11:30:53;93693.19;;;13.91;43.95
15195;BME280;7698;42.478;23.756;2023-01-08T11:33:25;93698.22;;;14.09;44.24
15195;BME280;7698;42.478;23.756;2023-01-08T11:36:02;93689.09;;;14.10;44.58
15195;BME280;7698;42.478;23.756;2023-01-08T11:38:33;93688.25;;;14.31;44.78
15195;BME280;7698;42.478;23.756;2023-01-08T11:41:09;93680.72;;;14.55;43.93
15195;BME280;7698;42.478;23.756;2023-01-08T11:43:54;93673.75;;;14.86;44.02
15195;BME280;7698;42.478;23.756;2023-01-08T11:46:30;93680.31;;;15.00;42.73
15195;BME280;7698;42.478;23.756;2023-01-08T11:49:20;93677.31;;;15.34;41.80
15195;BME280;7698;42.478;23.756;2023-01-08T11:52:03;93675.34;;;15.56;42.07
15195;BME280;7698;42.478;23.756;2023-01-08T11:54:52;93675.59;;;15.17;41.53
15195;BME280;7698;42.478;23.756;2023-01-08T11:57:29;93668.25;;;15.45;42.15
15195;BME280;7698;42.478;23.756;2023-01-08T12:00:14;93657.94;;;15.32;40.88
15195;BME280;7698;42.478;23.756;2023-01-08T12:02:51;93663.22;;;15.16;42.26
15195;BME280;7698;42.478;23.756;2023-01-08T12:05:39;93658.59;;;15.49;42.01
15195;BME280;7698;42.478;23.756;2023-01-08T12:08:20;93665.81;;;15.43;41.37
15195;BME280;7698;42.478;23.756;2023-01-08T12:10:58;93663.59;;;15.35;41.05
15195;BME280;7698;42.478;23.756;2023-01-08T12:13:43;93663.84;;;15.29;41.26
15195;BME280;7698;42.478;23.756;2023-01-08T12:16:27;93655.22;;;15.27;41.56
15195;BME280;7698;42.478;23.756;2023-01-08T12:19:11;93653.09;;;15.29;41.27
15195;BME280;7698;42.478;23.756;2023-01-08T12:21:47;93654.75;;;15.40;41.61
15195;BME280;7698;42.478;23.756;2023-01-08T12:24:35;93656.94;;;15.43;41.38
15195;BME280;7698;42.478;23.756;2023-01-08T12:27:15;93650.31;;;15.61;41.79
15195;BME280;7698;42.478;23.756;2023-01-08T12:30:01;93648.44;;;15.61;41.04
15195;BME280;7698;42.478;23.756;2023-01-08T12:32:33;93644.13;;;15.60;41.49
15195;BME280;7698;42.478;23.756;2023-01-08T12:35:08;93648.47;;;15.66;41.43
15195;BME280;7698;42.478;23.756;2023-01-08T12:37:41;93641.00;;;15.78;40.57
15195;BME280;7698;42.478;23.756;2023-01-08T12:40:18;93642.06;;;15.77;40.01
15195;BME280;7698;42.478;23.756;2023-01-08T12:42:46;93653.31;;;15.69;39.91
15195;BME280;7698;42.478;23.756;2023-01-08T12:45:16;93639.34;;;15.72;40.83
15195;BME280;7698;42.478;23.756;2023-01-08T12:47:47;93642.31;;;15.76;40.20
15195;BME280;7698;42.478;23.756;2023-01-08T12:50:31;93645.75;;;15.56;40.79
15195;BME280;7698;42.478;23.756;2023-01-08T12:53:05;93639.47;;;15.50;41.00
15195;BME280;7698;42.478;23.756;2023-01-08T12:55:42;93646.50;;;15.51;40.57
15195;BME280;7698;42.478;23.756;2023-01-08T12:58:19;93645.16;;;15.54;41.45
15195;BME280;7698;42.478;23.756;2023-01-08T13:00:55;93638.22;;;15.63;41.09
15195;BME280;7698;42.478;23.756;2023-01-08T13:03:27;93642.63;;;15.79;41.44
15195;BME280;7698;42.478;23.756;2023-01-08T13:06:05;93639.41;;;15.93;41.27
15195;BME280;7698;42.478;23.756;2023-01-08T13:08:34;93634.06;;;15.98;40.64
15195;BME280;7698;42.478;23.756;2023-01-08T13:11:04;93628.41;;;15.99;39.56